Time;durP1;ratioP1;P1;durP2;ratioP2;P2;SDS_P1;SDS_P2;PMS_P1;PMS_P2;Temp;Humidity;BMP_temperature;BMP_pressure;BME280_temperature;BME280_humidity;BME280_pressure;Samples;Min_cycle;Max_cycle;Signal;HPM_P1;HPM_P2
2021/03/15 05:02:58;;;;;;;9.50;6.88;;;3.90;99.90;;;;;;4858385;29;20593;-74
2021/03/15 05:05:25;;;;;;;13.95;6.95;;;3.90;99.90;;;;;;4859574;29;20217;-74
2021/03/15 05:07:53;;;;;;;11.90;7.40;;;3.90;99.90;;;;;;4859776;29;20236;-74
2021/03/15 05:10:19;;;;;;;6.53;5.80;;;3.80;99.90;;;;;;4860936;29;20607;-74
2021/03/15 05:12:46;;;;;;;10.27;6.25;;;3.80;99.90;;;;;;4861221;29;20284;-73
2021/03/15 05:15:13;;;;;;;16.58;6.85;;;3.80;99.90;;;;;;4860956;29;20231;-74
2021/03/15 05:17:41;;;;;;;7.43;6.43;;;3.80;99.90;;;;;;4860620;29;20205;-71
2021/03/15 05:20:11;;;;;;;11.43;7.10;;;3.80;99.90;;;;;;4858919;29;20208;-72
2021/03/15 05:22:39;;;;;;;10.52;6.90;;;3.70;99.90;;;;;;4859198;29;20212;-72
2021/03/15 05:25:09;;;;;;;9.75;6.78;;;3.80;99.90;;;;;;4860181;29;20633;-72
2021/03/15 05:27:35;;;;;;;8.57;6.40;;;3.80;99.90;;;;;;4856946;29;20261;-72
2021/03/15 05:30:06;;;;;;;9.20;6.05;;;3.80;99.90;;;;;;4856789;29;20205;-72
2021/03/15 05:32:36;;;;;;;9.15;7.55;;;3.90;99.90;;;;;;4862080;29;20706;-72
2021/03/15 05:35:03;;;;;;;11.02;7.82;;;3.90;99.90;;;;;;4861160;29;20216;-72
2021/03/15 05:37:31;;;;;;;10.15;6.90;;;3.90;99.90;;;;;;4858667;29;20265;-72
2021/03/15 05:39:57;;;;;;;13.40;7.13;;;3.90;99.90;;;;;;4843957;29;20217;-71
2021/03/15 05:42:38;;;;;;;9.63;6.97;;;3.90;99.90;;;;;;4853772;29;20268;-72
2021/03/15 05:45:33;;;;;;;8.98;6.75;;;4.00;99.90;;;;;;4862263;29;20223;-72
2021/03/15 05:48:39;;;;;;;8.48;6.93;;;4.00;99.90;;;;;;4844679;29;20225;-72
2021/03/15 05:51:27;;;;;;;14.32;6.95;;;4.10;99.90;;;;;;4862422;29;20288;-73
2021/03/15 05:54:25;;;;;;;8.45;6.57;;;4.10;99.90;;;;;;4844429;29;20205;-72
2021/03/15 05:57:12;;;;;;;10.07;6.60;;;4.10;99.90;;;;;;4855684;29;20940;-72
2021/03/15 06:00:02;;;;;;;9.57;6.93;;;4.20;99.90;;;;;;4844062;29;20570;-73
2021/03/15 06:02:59;;;;;;;10.10;6.93;;;4.20;99.90;;;;;;4852387;29;20236;-74
2021/03/15 06:05:25;;;;;;;12.35;7.05;;;4.30;99.90;;;;;;4860964;29;20209;-73
2021/03/15 06:07:56;;;;;;;7.90;6.40;;;4.30;99.90;;;;;;4849193;29;20261;-73
2021/03/15 06:10:36;;;;;;;11.88;7.45;;;4.30;99.90;;;;;;4844144;29;20289;-72
2021/03/15 06:13:03;;;;;;;8.43;6.20;;;4.40;99.90;;;;;;4843757;29;20342;-73
2021/03/15 06:15:35;;;;;;;10.75;6.95;;;4.40;99.90;;;;;;4853334;29;20219;-72
2021/03/15 06:18:03;;;;;;;13.63;6.55;;;4.40;99.90;;;;;;4861681;29;20201;-73
2021/03/15 06:20:29;;;;;;;12.70;7.40;;;4.40;99.90;;;;;;4850024;29;20717;-72
2021/03/15 06:22:58;;;;;;;15.95;7.90;;;4.40;99.90;;;;;;4843087;29;20216;-72
2021/03/15 06:25:26;;;;;;;10.07;6.60;;;4.50;99.90;;;;;;4846146;29;20268;-72
2021/03/15 06:27:53;;;;;;;12.25;7.25;;;4.50;99.90;;;;;;4861847;29;20232;-72
2021/03/15 06:30:20;;;;;;;9.30;6.72;;;4.60;99.90;;;;;;4860047;29;20838;-72
2021/03/15 06:32:49;;;;;;;11.05;6.22;;;4.60;99.90;;;;;;4861563;29;20213;-72
2021/03/15 06:35:16;;;;;;;11.30;7.30;;;4.70;99.90;;;;;;4860262;29;20219;-72
2021/03/15 06:37:44;;;;;;;12.07;7.35;;;4.70;99.90;;;;;;4861412;29;20208;-72
2021/03/15 06:40:12;;;;;;;12.05;7.30;;;4.70;99.90;;;;;;4859988;29;20296;-71
2021/03/15 06:42:40;;;;;;;12.40;8.43;;;4.70;99.90;;;;;;4860468;29;20661;-71
2021/03/15 06:45:10;;;;;;;8.63;6.70;;;4.80;99.90;;;;;;4852626;29;20549;-72
2021/03/15 06:47:37;;;;;;;11.15;6.88;;;4.80;99.90;;;;;;4859231;29;20318;-72
2021/03/15 06:50:04;;;;;;;8.23;6.20;;;4.80;99.90;;;;;;4848527;29;20260;-71
2021/03/15 06:52:30;;;;;;;9.98;7.22;;;4.90;99.90;;;;;;4859598;29;20236;-72
2021/03/15 06:55:00;;;;;;;7.45;5.53;;;5.00;99.90;;;;;;4847826;29;20209;-71
2021/03/15 06:57:28;;;;;;;5.35;4.85;;;5.00;99.90;;;;;;4861263;29;20346;-71
2021/03/15 06:59:56;;;;;;;7.00;6.20;;;5.00;99.90;;;;;;4860434;29;20212;-71
2021/03/15 07:02:27;;;;;;;7.47;6.25;;;5.00;99.90;;;;;;4860926;29;20260;-72
2021/03/15 07:04:55;;;;;;;6.60;5.50;;;5.00;99.90;;;;;;4859750;29;20212;-72
2021/03/15 07:07:23;;;;;;;7.97;5.90;;;5.00;99.90;;;;;;4843962;29;20232;-72
2021/03/15 07:09:49;;;;;;;7.57;5.88;;;5.00;99.90;;;;;;4859856;29;20296;-71
2021/03/15 07:12:19;;;;;;;7.72;6.32;;;5.10;99.90;;;;;;4859562;29;20583;-71
2021/03/15 07:14:46;;;;;;;12.40;6.72;;;5.10;99.90;;;;;;4861127;29;20216;-72
2021/03/15 07:17:22;;;;;;;8.13;6.57;;;5.10;99.90;;;;;;4860529;29;20224;-72
2021/03/15 07:19:48;;;;;;;8.00;6.47;;;5.20;99.90;;;;;;4859962;29;20622;-72
2021/03/15 07:22:22;;;;;;;6.90;5.78;;;5.20;99.90;;;;;;4852853;29;20225;-72
2021/03/15 07:25:05;;;;;;;6.82;5.88;;;5.30;99.90;;;;;;4861066;29;20217;-71
2021/03/15 07:27:32;;;;;;;6.85;5.50;;;5.40;99.90;;;;;;4852474;29;20251;-71
2021/03/15 07:30:01;;;;;;;6.78;5.75;;;5.60;99.90;;;;;;4860753;29;20208;-71
2021/03/15 07:32:40;;;;;;;8.65;6.25;;;5.70;99.90;;;;;;4860462;29;20236;-71
2021/03/15 07:35:25;;;;;;;5.93;5.43;;;5.80;99.90;;;;;;4857822;29;20271;-71
2021/03/15 07:37:51;;;;;;;8.57;5.85;;;5.90;99.90;;;;;;4860843;29;20208;-71
2021/03/15 07:40:36;;;;;;;6.40;5.30;;;5.90;99.90;;;;;;4859774;29;20287;-71
2021/03/15 07:43:03;;;;;;;8.25;5.93;;;6.00;99.90;;;;;;4861499;29;20219;-71
2021/03/15 07:45:31;;;;;;;8.65;7.65;;;5.90;99.90;;;;;;4851156;29;20272;-71
2021/03/15 07:48:13;;;;;;;8.23;5.35;;;5.90;99.90;;;;;;4859550;29;20228;-71
2021/03/15 07:50:41;;;;;;;8.80;5.53;;;6.00;99.90;;;;;;4859867;29;20633;-70
2021/03/15 07:53:07;;;;;;;5.65;5.03;;;6.00;99.90;;;;;;4859308;29;20216;-70
2021/03/15 07:55:35;;;;;;;8.80;5.72;;;6.00;99.90;;;;;;4859977;29;20224;-70
2021/03/15 07:58:02;;;;;;;7.63;6.82;;;6.00;99.90;;;;;;4857730;29;20215;-71
2021/03/15 08:00:29;;;;;;;5.53;5.00;;;6.00;99.90;;;;;;4841808;29;20233;-71
2021/03/15 08:02:57;;;;;;;7.43;5.72;;;6.10;99.90;;;;;;4858814;29;20276;-71
2021/03/15 08:05:24;;;;;;;6.80;6.03;;;6.10;99.90;;;;;;4859700;29;20562;-71
2021/03/15 08:07:51;;;;;;;5.35;4.85;;;6.20;99.90;;;;;;4860505;29;20600;-71
2021/03/15 08:10:17;;;;;;;5.32;4.82;;;6.30;99.90;;;;;;4860125;29;20225;-71
2021/03/15 08:12:46;;;;;;;6.72;4.70;;;6.40;99.90;;;;;;4860665;29;20235;-71
2021/03/15 08:15:13;;;;;;;5.95;3.47;;;6.40;99.90;;;;;;4848937;29;20209;-70
2021/03/15 08:17:43;;;;;;;5.70;4.05;;;6.40;99.90;;;;;;4846396;29;20208;-71
2021/03/15 08:20:10;;;;;;;12.57;6.25;;;6.40;99.90;;;;;;4849760;29;20216;-70
2021/03/15 08:22:39;;;;;;;5.10;3.83;;;6.40;99.90;;;;;;4853952;29;20216;-70
2021/03/15 08:25:09;;;;;;;5.90;4.60;;;6.40;99.90;;;;;;4859685;29;20209;-71
2021/03/15 08:27:39;;;;;;;9.05;5.00;;;6.40;99.90;;;;;;4846179;29;20361;-70
2021/03/15 08:30:08;;;;;;;9.82;5.72;;;6.50;99.90;;;;;;4841466;29;20309;-70
2021/03/15 08:32:37;;;;;;;5.88;5.30;;;6.40;99.90;;;;;;4853238;29;20205;-71
2021/03/15 08:35:06;;;;;;;5.55;5.05;;;6.40;99.90;;;;;;4856122;29;20217;-71
2021/03/15 08:37:51;;;;;;;6.45;4.55;;;6.30;99.90;;;;;;4859923;29;20213;-71
2021/03/15 08:40:49;;;;;;;8.23;6.20;;;6.30;99.90;;;;;;4847369;29;20220;-71
2021/03/15 08:43:29;;;;;;;7.05;5.20;;;6.30;99.90;;;;;;4858835;29;20574;-71
2021/03/15 08:45:56;;;;;;;6.80;4.47;;;6.30;99.90;;;;;;4843436;29;20213;-71
2021/03/15 08:48:54;;;;;;;6.10;5.30;;;6.30;99.90;;;;;;4858427;29;20229;-71
2021/03/15 08:51:44;;;;;;;9.30;5.40;;;6.30;99.90;;;;;;4848910;29;20264;-70
2021/03/15 08:54:13;;;;;;;6.70;5.10;;;6.30;99.90;;;;;;4859562;29;20228;-70
2021/03/15 08:56:41;;;;;;;6.22;5.18;;;6.30;99.90;;;;;;4850861;29;20253;-71
2021/03/15 08:59:09;;;;;;;8.82;5.40;;;6.30;99.90;;;;;;4862552;29;20694;-69
2021/03/15 09:01:57;;;;;;;6.03;4.95;;;6.30;99.90;;;;;;4859322;29;20251;-70
2021/03/15 09:04:42;;;;;;;5.38;4.82;;;6.30;99.90;;;;;;4870700;29;20588;-70
2021/03/15 09:07:39;;;;;;;6.05;4.90;;;6.30;99.90;;;;;;4863576;29;20244;-71
2021/03/15 09:10:42;;;;;;;7.25;4.82;;;6.30;99.90;;;;;;4855093;29;20210;-71
2021/03/15 09:13:31;;;;;;;8.23;4.95;;;6.30;99.90;;;;;;4855181;29;20269;-71
2021/03/15 09:16:02;;;;;;;11.90;6.57;;;6.30;99.90;;;;;;4858613;29;20221;-71
2021/03/15 09:18:53;;;;;;;9.70;4.60;;;6.30;99.90;;;;;;4859940;29;20593;-71
2021/03/15 09:21:54;;;;;;;5.18;4.72;;;6.30;99.90;;;;;;4862711;29;20619;-71
2021/03/15 09:24:47;;;;;;;11.70;5.18;;;6.40;99.90;;;;;;4787342;30;20300;-71
2021/03/15 09:27:30;;;;;;;14.20;7.85;;;6.30;99.90;;;;;;4787294;30;20235;-71
2021/03/15 09:29:58;;;;;;;16.05;8.50;;;6.40;99.90;;;;;;4843115;29;20223;-71
2021/03/15 09:32:30;;;;;;;4.70;4.25;;;6.30;99.90;;;;;;4855035;29;20228;-71
2021/03/15 09:34:58;;;;;;;6.35;4.47;;;6.40;99.90;;;;;;4861439;29;20209;-71
2021/03/15 09:37:26;;;;;;;3.90;3.50;;;6.40;99.90;;;;;;4853911;29;20228;-71
2021/03/15 09:39:54;;;;;;;5.82;4.63;;;6.40;99.90;;;;;;4861937;29;20209;-69
2021/03/15 09:42:20;;;;;;;6.45;4.90;;;6.40;99.90;;;;;;4858240;29;20289;-69
2021/03/15 09:44:46;;;;;;;9.00;4.70;;;6.50;99.90;;;;;;4846935;29;20356;-71
2021/03/15 09:47:15;;;;;;;5.55;3.65;;;6.50;99.90;;;;;;4862346;29;20232;-71
2021/03/15 09:49:43;;;;;;;5.38;3.85;;;6.50;99.90;;;;;;4861684;29;20244;-70
2021/03/15 09:52:17;;;;;;;4.07;3.78;;;6.60;99.90;;;;;;4861136;29;20324;-70
2021/03/15 09:54:45;;;;;;;3.50;3.25;;;6.60;99.90;;;;;;4862740;29;20217;-70
2021/03/15 09:57:12;;;;;;;3.35;3.10;;;6.60;99.90;;;;;;4845749;29;20573;-70
2021/03/15 09:59:39;;;;;;;3.95;3.13;;;6.70;99.90;;;;;;4843873;29;20217;-69
2021/03/15 10:02:05;;;;;;;3.67;2.85;;;6.70;99.90;;;;;;4843900;29;20237;-70
2021/03/15 10:04:34;;;;;;;3.30;2.60;;;6.80;99.90;;;;;;4843315;29;20580;-71
2021/03/15 10:07:02;;;;;;;2.75;2.60;;;6.90;99.90;;;;;;4857770;29;20307;-71
2021/03/15 10:09:31;;;;;;;2.10;2.00;;;7.00;99.90;;;;;;4862210;29;20209;-71
2021/03/15 10:11:58;;;;;;;2.05;1.95;;;7.10;99.90;;;;;;4862122;29;20336;-71
2021/03/15 10:14:24;;;;;;;1.90;1.83;;;7.20;99.90;;;;;;4850230;29;20228;-71
2021/03/15 10:16:56;;;;;;;5.13;2.15;;;7.20;99.90;;;;;;4843544;29;20213;-71
2021/03/15 10:19:23;;;;;;;2.05;1.95;;;7.20;99.90;;;;;;4853783;29;20200;-71
2021/03/15 10:21:51;;;;;;;1.95;1.77;;;7.30;99.90;;;;;;4861532;29;20231;-71
2021/03/15 10:24:31;;;;;;;2.15;1.73;;;7.30;99.90;;;;;;4861080;29;20220;-71
2021/03/15 10:26:58;;;;;;;2.95;1.48;;;7.50;99.90;;;;;;4853224;29;20221;-71
2021/03/15 10:29:26;;;;;;;1.90;1.50;;;7.60;99.90;;;;;;4848877;29;20261;-71
2021/03/15 10:31:52;;;;;;;4.15;1.17;;;7.70;99.90;;;;;;4861890;29;20235;-70
2021/03/15 10:34:22;;;;;;;1.40;1.40;;;7.80;99.90;;;;;;4860559;29;20220;-69
2021/03/15 10:36:50;;;;;;;4.63;1.65;;;7.90;99.90;;;;;;4861057;29;20213;-69
2021/03/15 10:39:18;;;;;;;3.15;2.85;;;8.00;99.90;;;;;;4857127;29;20213;-71
2021/03/15 10:41:45;;;;;;;2.92;1.60;;;8.10;99.90;;;;;;4843205;29;20697;-73
2021/03/15 10:44:11;;;;;;;1.33;1.23;;;8.20;99.90;;;;;;4842301;29;20291;-73
2021/03/15 10:46:46;;;;;;;4.00;1.42;;;8.40;99.90;;;;;;4877504;29;20211;-73
2021/03/15 10:49:20;;;;;;;4.07;1.73;;;8.60;99.90;;;;;;4875588;29;20253;-74
2021/03/15 10:51:50;;;;;;;3.40;1.38;;;8.70;99.90;;;;;;4861158;29;20650;-73
2021/03/15 10:54:28;;;;;;;4.15;1.40;;;8.80;99.90;;;;;;4859775;29;20215;-72
2021/03/15 10:57:14;;;;;;;3.47;1.42;;;8.80;99.90;;;;;;4860991;29;20220;-72
2021/03/15 10:59:41;;;;;;;3.90;2.17;;;8.80;99.90;;;;;;4842333;29;20214;-71
2021/03/15 11:02:08;;;;;;;4.88;2.03;;;8.80;99.90;;;;;;4843750;29;20256;-72
2021/03/15 11:04:39;;;;;;;3.40;1.30;;;8.90;99.90;;;;;;4860248;29;20213;-72
2021/03/15 11:07:23;;;;;;;2.67;1.85;;;8.90;99.90;;;;;;4857729;29;20206;-72
2021/03/15 11:09:57;;;;;;;3.60;1.85;;;9.00;99.90;;;;;;4842420;29;20674;-72
2021/03/15 11:12:49;;;;;;;3.80;1.33;;;8.90;99.90;;;;;;4846877;29;20224;-72
2021/03/15 11:15:28;;;;;;;4.00;1.35;;;8.80;99.90;;;;;;4860628;29;20224;-72
2021/03/15 11:18:04;;;;;;;3.13;1.20;;;8.80;99.90;;;;;;4853196;29;20228;-72
2021/03/15 11:20:43;;;;;;;4.53;2.33;;;8.70;99.90;;;;;;4846962;29;20559;-72
2021/03/15 11:23:10;;;;;;;3.85;1.40;;;8.70;99.90;;;;;;4859397;29;20673;-72
2021/03/15 11:25:37;;;;;;;3.85;1.30;;;8.80;99.90;;;;;;4855002;29;20225;-72
2021/03/15 11:28:06;;;;;;;3.03;1.70;;;8.80;99.90;;;;;;4846648;29;20232;-70
2021/03/15 11:30:33;;;;;;;3.30;2.03;;;8.80;99.90;;;;;;4855589;29;20225;-72
2021/03/15 11:33:01;;;;;;;3.05;1.15;;;8.80;99.90;;;;;;4862899;29;20207;-72
2021/03/15 11:35:28;;;;;;;2.70;1.83;;;8.80;99.90;;;;;;4870526;29;20220;-72
2021/03/15 11:37:57;;;;;;;3.90;1.73;;;8.80;99.90;;;;;;4842394;29;20209;-71
2021/03/15 11:40:28;;;;;;;4.50;1.77;;;8.80;99.90;;;;;;4844398;29;20206;-71
2021/03/15 11:42:56;;;;;;;5.95;1.38;;;8.90;99.90;;;;;;4848227;29;20227;-71
2021/03/15 11:45:23;;;;;;;4.28;1.50;;;8.80;99.90;;;;;;4860161;29;20212;-71
2021/03/15 11:47:49;;;;;;;1.55;1.42;;;8.90;99.90;;;;;;4860060;29;20236;-70
2021/03/15 11:50:16;;;;;;;6.03;2.10;;;9.00;99.90;;;;;;4847259;29;20296;-71
2021/03/15 11:52:42;;;;;;;4.18;1.95;;;9.10;99.90;;;;;;4841678;29;20619;-71
2021/03/15 11:55:09;;;;;;;7.75;1.92;;;9.10;99.90;;;;;;4847062;29;20224;-70
2021/03/15 11:57:36;;;;;;;3.63;2.05;;;9.10;99.90;;;;;;4858486;29;20208;-69
2021/03/15 12:00:04;;;;;;;6.72;1.85;;;9.20;99.90;;;;;;4859938;29;20213;-70
2021/03/15 12:02:30;;;;;;;4.22;2.00;;;9.20;99.90;;;;;;4859500;29;20328;-70
2021/03/15 12:04:57;;;;;;;6.05;2.30;;;9.30;99.90;;;;;;4843740;29;20209;-71
2021/03/15 12:07:23;;;;;;;2.25;1.60;;;9.20;99.90;;;;;;4855221;29;20224;-71
2021/03/15 12:09:49;;;;;;;5.30;1.52;;;9.20;99.90;;;;;;4859626;29;20217;-71
2021/03/15 12:12:16;;;;;;;5.65;1.95;;;9.30;99.90;;;;;;4860227;29;20553;-71
2021/03/15 12:14:42;;;;;;;4.00;1.55;;;9.20;99.90;;;;;;4846953;29;20205;-71
2021/03/15 12:17:10;;;;;;;5.57;1.83;;;9.00;99.90;;;;;;4860281;29;20208;-71
2021/03/15 12:19:36;;;;;;;1.70;1.60;;;8.70;99.90;;;;;;4858325;29;20849;-71
2021/03/15 12:22:02;;;;;;;5.63;2.45;;;8.70;99.90;;;;;;4859818;29;20236;-72
2021/03/15 12:24:29;;;;;;;1.48;1.35;;;8.60;99.90;;;;;;4860021;29;20224;-70
2021/03/15 12:26:55;;;;;;;5.93;1.80;;;8.50;99.90;;;;;;4859818;29;20284;-70
2021/03/15 12:29:22;;;;;;;11.50;2.70;;;8.50;99.90;;;;;;4859773;29;20251;-70
2021/03/15 12:31:48;;;;;;;4.45;1.85;;;8.50;99.90;;;;;;4859952;29;20277;-69
2021/03/15 12:34:15;;;;;;;4.28;1.80;;;8.40;99.90;;;;;;4861146;29;20212;-70
2021/03/15 12:36:41;;;;;;;1.48;1.35;;;8.30;99.90;;;;;;4863722;29;20245;-70
2021/03/15 12:39:07;;;;;;;2.35;1.48;;;8.20;99.90;;;;;;4863789;29;20217;-70
2021/03/15 12:41:34;;;;;;;2.63;1.48;;;8.10;99.90;;;;;;4878537;29;20739;-70
2021/03/15 12:44:00;;;;;;;3.05;1.17;;;8.00;99.90;;;;;;4881940;29;20369;-70
2021/03/15 12:46:26;;;;;;;6.68;1.65;;;8.00;99.90;;;;;;4882206;29;20220;-70
2021/03/15 12:48:52;;;;;;;2.78;1.52;;;7.90;99.90;;;;;;4881060;29;20271;-70
2021/03/15 12:51:20;;;;;;;3.05;1.45;;;7.90;99.90;;;;;;4882247;29;20235;-73
2021/03/15 12:53:46;;;;;;;7.75;1.65;;;8.00;99.90;;;;;;4882177;29;20220;-72
2021/03/15 12:56:12;;;;;;;3.53;1.90;;;8.00;99.90;;;;;;4882168;29;20207;-73
2021/03/15 12:58:39;;;;;;;4.75;1.95;;;8.00;99.90;;;;;;4881288;29;20212;-74
2021/03/15 13:01:05;;;;;;;5.25;1.77;;;8.00;99.90;;;;;;4881800;29;20254;-71
2021/03/15 13:03:31;;;;;;;2.88;2.05;;;8.00;99.90;;;;;;4881075;29;20215;-71
2021/03/15 13:05:57;;;;;;;3.45;3.15;;;7.90;99.90;;;;;;4882328;29;20330;-72
2021/03/15 13:08:24;;;;;;;2.20;2.00;;;7.90;99.90;;;;;;4881573;29;20223;-74
2021/03/15 13:10:51;;;;;;;3.50;1.42;;;7.90;99.90;;;;;;4881650;29;20712;-69
2021/03/15 13:13:17;;;;;;;9.30;2.33;;;8.00;99.90;;;;;;4881264;29;20231;-71
2021/03/15 13:15:43;;;;;;;4.80;2.03;;;8.00;99.90;;;;;;4881474;29;20643;-71
2021/03/15 13:18:11;;;;;;;1.10;1.00;;;8.00;99.90;;;;;;4881610;29;20212;-70
2021/03/15 13:20:37;;;;;;;5.07;0.70;;;8.00;99.90;;;;;;4873861;29;20240;-70
2021/03/15 13:23:04;;;;;;;1.20;0.60;;;8.00;99.90;;;;;;4863038;29;20654;-70
2021/03/15 13:25:31;;;;;;;2.60;1.33;;;8.00;99.90;;;;;;4862739;29;20216;-70
2021/03/15 13:27:57;;;;;;;2.55;0.95;;;8.00;99.90;;;;;;4863078;29;20224;-70
2021/03/15 13:30:24;;;;;;;1.25;1.15;;;7.90;99.90;;;;;;4862533;29;20220;-70
2021/03/15 13:32:51;;;;;;;1.80;1.02;;;7.80;99.90;;;;;;4862026;29;20213;-70
2021/03/15 13:35:17;;;;;;;1.15;0.80;;;7.80;99.90;;;;;;4861838;29;20228;-70
2021/03/15 13:37:44;;;;;;;1.30;1.30;;;7.70;99.90;;;;;;4862658;29;20216;-70
2021/03/15 13:40:11;;;;;;;4.50;2.45;;;7.70;99.90;;;;;;4862049;29;20221;-70
2021/03/15 13:42:38;;;;;;;1.58;1.27;;;7.70;99.90;;;;;;4862664;29;20245;-70
2021/03/15 13:45:06;;;;;;;1.77;0.80;;;7.70;99.90;;;;;;4861134;29;20248;-70
2021/03/15 13:47:32;;;;;;;1.95;0.90;;;7.80;99.90;;;;;;4862217;29;20304;-70
2021/03/15 13:49:59;;;;;;;1.35;1.35;;;7.80;99.90;;;;;;4861343;29;20216;-70
2021/03/15 13:52:25;;;;;;;1.10;1.10;;;7.90;99.90;;;;;;4861941;29;20236;-70
2021/03/15 13:54:51;;;;;;;1.52;1.40;;;7.90;99.90;;;;;;4862004;29;20220;-70
2021/03/15 13:57:18;;;;;;;1.55;1.02;;;7.80;99.90;;;;;;4862705;29;20220;-70
2021/03/15 13:59:45;;;;;;;1.48;1.42;;;7.80;99.90;;;;;;4861785;29;20678;-70
2021/03/15 14:02:11;;;;;;;1.52;1.42;;;7.80;99.90;;;;;;4861723;29;20252;-70
2021/03/15 14:04:37;;;;;;;3.58;1.63;;;7.80;99.90;;;;;;4861420;29;20212;-70
2021/03/15 14:07:03;;;;;;;0.93;0.93;;;7.80;99.90;;;;;;4862074;29;20212;-69
2021/03/15 14:09:31;;;;;;;0.80;0.77;;;7.80;99.90;;;;;;4861915;29;20258;-69
2021/03/15 14:11:57;;;;;;;2.42;1.10;;;7.70;99.90;;;;;;4862078;29;20232;-70
2021/03/15 14:14:23;;;;;;;11.80;1.33;;;7.70;99.90;;;;;;4861531;29;20541;-70
2021/03/15 14:16:50;;;;;;;0.75;0.60;;;7.70;99.90;;;;;;4862151;29;20225;-70
2021/03/15 14:19:17;;;;;;;1.23;1.13;;;7.70;99.90;;;;;;4861053;29;20212;-70
2021/03/15 14:21:43;;;;;;;0.93;0.73;;;7.60;99.90;;;;;;4861645;29;20693;-70
2021/03/15 14:24:10;;;;;;;1.55;0.90;;;7.70;99.90;;;;;;4842813;29;20224;-70
2021/03/15 14:26:36;;;;;;;1.13;0.80;;;7.60;99.90;;;;;;4842800;29;20300;-70
2021/03/15 14:29:04;;;;;;;0.98;0.98;;;7.60;99.90;;;;;;4866317;29;20250;-72
2021/03/15 14:31:30;;;;;;;0.82;0.82;;;7.60;99.90;;;;;;4879653;29;20238;-71
2021/03/15 14:33:57;;;;;;;1.08;1.05;;;7.60;99.90;;;;;;4878817;29;20208;-71
2021/03/15 14:36:24;;;;;;;1.33;1.00;;;7.50;99.90;;;;;;4880143;29;20216;-69
2021/03/15 14:38:50;;;;;;;3.53;1.25;;;7.50;99.90;;;;;;4879799;29;20208;-70
2021/03/15 14:41:16;;;;;;;2.15;1.25;;;7.40;99.90;;;;;;4879934;29;20313;-70
2021/03/15 14:43:43;;;;;;;2.25;0.90;;;7.30;99.90;;;;;;4879529;29;20526;-70
2021/03/15 14:46:09;;;;;;;0.75;0.75;;;7.20;99.90;;;;;;4880106;29;20223;-70
2021/03/15 14:48:36;;;;;;;2.30;1.33;;;7.10;99.90;;;;;;4879013;29;20578;-70
2021/03/15 14:51:03;;;;;;;1.67;1.60;;;7.00;99.90;;;;;;4879746;29;20257;-70
2021/03/15 14:53:29;;;;;;;1.98;1.60;;;7.00;99.90;;;;;;4879450;29;20212;-70
2021/03/15 14:55:55;;;;;;;1.70;1.02;;;7.00;99.90;;;;;;4876892;29;20692;-70
2021/03/15 14:58:22;;;;;;;4.60;1.70;;;7.00;99.90;;;;;;4860756;29;20213;-70
2021/03/15 15:00:48;;;;;;;4.53;0.93;;;6.90;99.90;;;;;;4860760;29;20244;-70
2021/03/15 15:03:15;;;;;;;1.90;1.23;;;6.90;99.90;;;;;;4860162;29;20220;-70
2021/03/15 15:05:41;;;;;;;1.67;1.08;;;6.90;99.90;;;;;;4861169;29;20563;-70
2021/03/15 15:08:09;;;;;;;2.70;1.05;;;7.00;99.90;;;;;;4860782;29;20247;-71
2021/03/15 15:10:35;;;;;;;3.05;1.00;;;7.00;99.90;;;;;;4860526;29;20228;-72
2021/03/15 15:13:02;;;;;;;2.05;0.80;;;7.00;99.90;;;;;;4863529;29;20555;-71
2021/03/15 15:15:28;;;;;;;4.63;3.55;;;7.00;99.90;;;;;;4879171;29;20626;-72
2021/03/15 15:17:54;;;;;;;0.98;0.98;;;6.90;99.90;;;;;;4879842;29;20251;-71
2021/03/15 15:20:21;;;;;;;1.70;1.20;;;7.00;99.90;;;;;;4868799;29;20220;-70
2021/03/15 15:22:47;;;;;;;1.40;1.10;;;7.00;99.90;;;;;;4860556;29;20220;-71
2021/03/15 15:25:15;;;;;;;1.92;1.90;;;7.00;99.90;;;;;;4860460;29;20221;-71
2021/03/15 15:27:41;;;;;;;1.77;1.25;;;7.00;99.90;;;;;;4860877;29;20220;-71
2021/03/15 15:30:08;;;;;;;1.58;1.23;;;7.00;99.90;;;;;;4863458;29;20288;-70
2021/03/15 15:32:35;;;;;;;3.03;1.58;;;7.00;99.90;;;;;;4878945;29;20566;-70
2021/03/15 15:35:02;;;;;;;1.33;1.33;;;7.00;99.90;;;;;;4878307;29;20250;-70
2021/03/15 15:37:28;;;;;;;1.02;1.02;;;7.00;99.90;;;;;;4879091;29;20216;-70
2021/03/15 15:39:54;;;;;;;5.05;1.50;;;6.90;99.90;;;;;;4878895;29;20216;-70
2021/03/15 15:42:21;;;;;;;2.42;1.05;;;6.90;99.90;;;;;;4878590;29;20244;-70
2021/03/15 15:44:47;;;;;;;1.15;1.15;;;6.90;99.90;;;;;;4878374;29;20226;-70
2021/03/15 15:47:14;;;;;;;2.25;1.23;;;6.90;99.90;;;;;;4874271;29;20289;-71
2021/03/15 15:49:40;;;;;;;1.52;1.42;;;6.80;99.90;;;;;;4859250;29;20238;-69
2021/03/15 15:52:07;;;;;;;4.97;1.40;;;6.90;99.90;;;;;;4858671;29;20232;-72
2021/03/15 15:54:33;;;;;;;3.40;1.45;;;6.90;99.90;;;;;;4858298;29;20213;-71
2021/03/15 15:56:59;;;;;;;5.78;1.58;;;6.80;99.90;;;;;;4858006;29;20221;-71
2021/03/15 15:59:26;;;;;;;1.77;1.55;;;6.90;99.90;;;;;;4849065;29;20630;-71
2021/03/15 16:01:52;;;;;;;1.00;1.00;;;6.90;99.90;;;;;;4859338;29;20240;-71
2021/03/15 16:04:18;;;;;;;1.20;1.20;;;6.80;99.90;;;;;;4856882;29;20208;-71
2021/03/15 16:06:44;;;;;;;1.02;1.02;;;6.80;99.90;;;;;;4859236;29;20205;-72
2021/03/15 16:09:11;;;;;;;3.35;1.70;;;6.80;99.90;;;;;;4859697;29;20233;-72
2021/03/15 16:11:37;;;;;;;4.30;2.10;;;6.80;99.90;;;;;;4860630;29;20260;-72
2021/03/15 16:14:03;;;;;;;1.15;1.15;;;6.70;99.90;;;;;;4855318;29;20226;-72
2021/03/15 16:16:30;;;;;;;3.85;1.45;;;6.70;99.90;;;;;;4842320;29;20532;-72
2021/03/15 16:18:56;;;;;;;1.65;1.08;;;6.70;99.90;;;;;;4845463;29;20566;-72
2021/03/15 16:21:23;;;;;;;2.35;1.30;;;6.70;99.90;;;;;;4865640;29;20247;-72
2021/03/15 16:23:50;;;;;;;3.15;1.33;;;6.70;99.90;;;;;;4860177;29;20213;-72
2021/03/15 16:26:16;;;;;;;1.67;1.58;;;6.70;99.90;;;;;;4844711;29;20209;-71
2021/03/15 16:28:43;;;;;;;1.67;1.58;;;6.70;99.90;;;;;;4856423;29;20228;-71
2021/03/15 16:31:09;;;;;;;2.15;1.42;;;6.70;99.90;;;;;;4860739;29;20232;-71
2021/03/15 16:33:36;;;;;;;4.32;1.65;;;6.70;99.90;;;;;;4855581;29;20216;-70
2021/03/15 16:36:02;;;;;;;10.57;2.10;;;6.60;99.90;;;;;;4850828;29;20205;-72
2021/03/15 16:38:29;;;;;;;3.25;2.00;;;6.60;99.90;;;;;;4855459;29;20282;-70
2021/03/15 16:40:55;;;;;;;3.55;2.22;;;6.60;99.90;;;;;;4848860;29;20233;-71
2021/03/15 16:43:21;;;;;;;2.50;2.15;;;6.60;99.90;;;;;;4858308;29;20693;-71
2021/03/15 16:45:47;;;;;;;2.15;1.98;;;6.60;99.90;;;;;;4859374;29;20213;-70
2021/03/15 16:48:14;;;;;;;3.53;3.22;;;6.60;99.90;;;;;;4858668;29;20354;-72
2021/03/15 16:50:40;;;;;;;3.70;2.40;;;6.50;99.90;;;;;;4864616;29;20237;-71
2021/03/15 16:53:07;;;;;;;3.78;2.08;;;6.50;99.90;;;;;;4860045;29;20204;-72
2021/03/15 16:55:33;;;;;;;1.98;1.88;;;6.60;99.90;;;;;;4867269;29;20212;-70
2021/03/15 16:57:59;;;;;;;4.47;2.85;;;6.50;99.90;;;;;;4868969;29;20201;-71
2021/03/15 17:00:25;;;;;;;2.85;2.50;;;6.50;99.90;;;;;;4874137;29;20271;-70
2021/03/15 17:02:52;;;;;;;2.72;2.25;;;6.50;99.90;;;;;;4862391;29;20216;-69
2021/03/15 17:05:18;;;;;;;4.88;2.42;;;6.40;99.90;;;;;;4858661;29;20216;-73
2021/03/15 17:07:45;;;;;;;4.13;3.40;;;6.40;99.90;;;;;;4868316;29;20231;-70
2021/03/15 17:10:12;;;;;;;4.80;3.92;;;6.40;99.90;;;;;;4859939;29;20311;-71
2021/03/15 17:12:38;;;;;;;3.83;3.33;;;6.30;99.90;;;;;;4867104;29;20212;-71
2021/03/15 17:15:06;;;;;;;3.35;3.08;;;6.30;99.90;;;;;;4860538;29;20212;-71
2021/03/15 17:17:32;;;;;;;8.10;4.15;;;6.30;99.90;;;;;;4855020;29;20208;-71
2021/03/15 17:20:01;;;;;;;5.03;4.43;;;6.30;99.90;;;;;;4851092;29;20201;-71
2021/03/15 17:22:27;;;;;;;9.32;4.55;;;6.30;99.90;;;;;;4843784;29;20240;-70
2021/03/15 17:24:54;;;;;;;4.93;4.43;;;6.20;99.90;;;;;;4853734;29;20213;-70
2021/03/15 17:27:21;;;;;;;7.80;3.75;;;6.20;99.90;;;;;;4862792;29;20217;-70
2021/03/15 17:29:47;;;;;;;5.40;4.20;;;6.20;99.90;;;;;;4869225;29;20228;-71
2021/03/15 17:32:13;;;;;;;5.40;4.15;;;6.10;99.90;;;;;;4877271;29;20705;-72
2021/03/15 17:34:40;;;;;;;3.92;3.55;;;6.10;99.90;;;;;;4861693;29;20318;-71
2021/03/15 17:37:06;;;;;;;7.88;3.85;;;6.10;99.90;;;;;;4862539;29;20276;-71
2021/03/15 17:39:32;;;;;;;10.23;3.53;;;6.10;99.90;;;;;;4863415;29;20205;-71
2021/03/15 17:41:59;;;;;;;13.45;4.80;;;6.10;99.90;;;;;;4861560;29;20220;-71
2021/03/15 17:44:26;;;;;;;4.55;4.25;;;6.10;99.90;;;;;;4861436;29;20503;-71
2021/03/15 17:46:52;;;;;;;4.40;4.00;;;6.10;99.90;;;;;;4850777;29;20205;-71
2021/03/15 17:49:18;;;;;;;5.13;4.68;;;6.10;99.90;;;;;;4843098;29;20714;-71
2021/03/15 17:51:45;;;;;;;3.35;3.25;;;6.00;99.90;;;;;;4855340;29;20232;-71
2021/03/15 17:54:12;;;;;;;4.13;3.55;;;6.00;99.90;;;;;;4861798;29;20216;-70
2021/03/15 17:56:38;;;;;;;5.20;3.53;;;6.00;99.90;;;;;;4861774;29;20212;-70
2021/03/15 17:59:05;;;;;;;3.95;3.45;;;6.00;99.90;;;;;;4862098;29;20276;-70
2021/03/15 18:01:31;;;;;;;3.85;3.40;;;6.00;99.90;;;;;;4861608;29;20244;-70
2021/03/15 18:03:57;;;;;;;8.63;3.50;;;6.00;99.90;;;;;;4861449;29;20215;-72
2021/03/15 18:06:24;;;;;;;4.88;3.72;;;6.00;99.90;;;;;;4862066;29;20232;-72
2021/03/15 18:08:50;;;;;;;3.17;3.08;;;6.00;99.90;;;;;;4861889;29;20684;-71